createdAt,value
2022-12-05T00:04:13.174Z,28.10
2022-12-05T00:09:16.689Z,21.90
2022-12-05T00:14:20.221Z,26.30
2022-12-05T00:19:23.730Z,28.00
2022-12-05T00:24:27.169Z,19.00
2022-12-05T00:29:30.471Z,31.90
2022-12-05T00:34:34.058Z,23.30
2022-12-05T00:39:37.724Z,15.60
2022-12-05T00:44:41.289Z,25.70
2022-12-05T00:49:44.668Z,16.30
2022-12-05T00:54:48.253Z,27.20
2022-12-05T00:59:51.957Z,23.50
2022-12-05T01:04:55.437Z,16.80
2022-12-05T01:09:59.193Z,25.40
2022-12-05T01:15:04.072Z,24.50
2022-12-05T01:20:08.108Z,19.60
2022-12-05T01:25:12.072Z,26.30
2022-12-05T01:30:15.710Z,25.40
2022-12-05T01:35:19.277Z,25.60
2022-12-05T01:40:23.094Z,27.00
2022-12-05T01:45:32.341Z,27.20
2022-12-05T01:50:36.611Z,21.90
2022-12-05T01:55:40.415Z,21.80
2022-12-05T02:00:44.375Z,18.70
2022-12-05T02:05:53.057Z,27.50
2022-12-05T02:10:57.998Z,23.40
2022-12-05T02:16:20.339Z,20.10
2022-12-05T02:21:47.423Z,23.70
2022-12-05T02:27:11.221Z,39.60
2022-12-05T02:32:29.996Z,44.20
2022-12-05T02:37:40.903Z,29.20
2022-12-05T02:42:54.306Z,33.00
2022-12-05T02:48:00.439Z,28.40
2022-12-05T02:53:16.645Z,23.30
2022-12-05T02:58:24.920Z,31.70
2022-12-05T03:03:29.463Z,31.30
2022-12-05T03:08:40.568Z,25.80
2022-12-05T03:13:53.391Z,28.60
2022-12-05T03:19:03.738Z,22.60
2022-12-05T03:24:10.847Z,36.70
2022-12-05T03:29:23.745Z,34.60
2022-12-05T03:34:36.625Z,24.00
2022-12-05T03:39:45.575Z,19.70
2022-12-05T03:44:59.124Z,31.60
2022-12-05T03:50:11.881Z,23.70
2022-12-05T03:55:15.571Z,24.00
2022-12-05T04:00:22.707Z,28.20
2022-12-05T04:05:26.186Z,26.00
2022-12-05T04:10:33.709Z,24.00
2022-12-05T04:21:23.103Z,26.10
2022-12-05T04:26:32.069Z,29.30
2022-12-05T04:31:44.432Z,28.20
2022-12-05T04:36:55.134Z,44.10
2022-12-05T04:42:16.915Z,91.40
2022-12-05T04:47:26.010Z,38.40
2022-12-05T04:52:30.118Z,33.90
2022-12-05T04:57:51.159Z,31.10
2022-12-05T05:03:39.391Z,34.60
2022-12-05T05:08:52.735Z,36.00
2022-12-05T05:13:56.991Z,38.10
2022-12-05T05:19:00.585Z,27.80
2022-12-05T05:24:04.442Z,21.70
2022-12-05T05:29:09.896Z,29.90
2022-12-05T05:34:16.552Z,22.30
2022-12-05T05:39:20.789Z,22.50
2022-12-05T05:44:24.401Z,34.80
2022-12-05T05:49:27.668Z,37.30
2022-12-05T05:54:31.309Z,28.10
2022-12-05T05:59:35.550Z,27.70
2022-12-05T06:04:38.893Z,22.60
2022-12-05T06:09:42.362Z,34.60
2022-12-05T06:14:48.898Z,28.80
2022-12-05T06:19:52.466Z,26.80
2022-12-05T06:24:55.722Z,36.80
2022-12-05T06:29:58.953Z,28.10
2022-12-05T06:35:08.147Z,27.70
2022-12-05T06:40:15.976Z,34.70
2022-12-05T06:50:24.828Z,31.30
2022-12-05T06:55:28.363Z,25.90
2022-12-05T07:00:50.243Z,27.70
2022-12-05T07:05:53.936Z,23.00
2022-12-05T07:10:57.862Z,31.20
2022-12-05T07:16:01.762Z,20.40
2022-12-05T07:21:12.606Z,28.70
2022-12-05T07:26:22.277Z,30.90
2022-12-05T07:31:26.956Z,26.80
2022-12-05T07:36:30.872Z,33.90
2022-12-05T07:41:35.331Z,156.00
2022-12-05T07:46:39.486Z,72.70
2022-12-05T07:51:43.142Z,41.10
2022-12-05T07:56:48.119Z,38.80
2022-12-05T08:01:51.878Z,30.20
2022-12-05T08:06:55.572Z,23.90
2022-12-05T08:11:58.988Z,30.30
2022-12-05T08:17:02.423Z,31.00
2022-12-05T08:22:05.824Z,29.40
2022-12-05T08:27:09.383Z,35.50
2022-12-05T08:32:13.333Z,34.40
2022-12-05T08:37:17.112Z,29.70
2022-12-05T08:42:20.399Z,24.40
2022-12-05T08:47:27.711Z,20.80
2022-12-05T08:52:30.798Z,26.00
2022-12-05T08:57:34.135Z,26.20
2022-12-05T09:02:37.881Z,31.50
2022-12-05T09:07:41.492Z,23.10
2022-12-05T09:12:45.105Z,27.00
2022-12-05T09:17:48.593Z,20.30
2022-12-05T09:22:53.197Z,20.70
2022-12-05T09:27:57.855Z,24.20
2022-12-05T09:33:02.223Z,25.40
2022-12-05T09:38:05.415Z,31.20
2022-12-05T09:43:35.415Z,23.90
2022-12-05T09:48:41.776Z,28.90
2022-12-05T09:53:45.850Z,18.00
2022-12-05T09:58:50.668Z,22.60
2022-12-05T10:04:43.972Z,23.00
2022-12-05T10:10:20.172Z,39.10
2022-12-05T10:15:55.649Z,74.50
2022-12-05T10:21:09.975Z,126.10
2022-12-05T10:26:17.314Z,30.30
2022-12-05T10:31:27.792Z,27.70
2022-12-05T10:36:32.440Z,26.90
2022-12-05T10:41:36.100Z,27.90
2022-12-05T10:46:39.964Z,28.30
2022-12-05T10:51:44.763Z,31.90
2022-12-05T10:56:53.944Z,25.70
2022-12-05T11:01:59.764Z,27.20
2022-12-05T11:07:06.236Z,26.30
2022-12-05T11:12:09.575Z,32.90
2022-12-05T11:17:26.235Z,25.40
2022-12-05T11:22:35.457Z,27.40
2022-12-05T11:27:38.630Z,27.60
2022-12-05T11:32:41.714Z,37.60
2022-12-05T11:37:54.373Z,32.70
2022-12-05T11:43:19.858Z,24.50
2022-12-05T11:48:36.026Z,34.30
2022-12-05T11:55:03.901Z,33.20
2022-12-05T12:00:20.563Z,43.50
2022-12-05T12:05:54.957Z,32.50
2022-12-05T12:11:30.101Z,42.30
2022-12-05T12:16:44.118Z,39.00
2022-12-05T12:21:56.307Z,26.60
2022-12-05T12:27:12.266Z,37.40
2022-12-05T12:32:30.983Z,34.40
2022-12-05T12:37:35.737Z,34.20
2022-12-05T12:43:14.565Z,32.70
2022-12-05T12:48:50.270Z,40.10
2022-12-05T12:54:15.255Z,31.90
2022-12-05T12:59:28.280Z,40.40
2022-12-05T13:04:48.856Z,39.10
2022-12-05T13:10:00.185Z,39.20
2022-12-05T13:15:31.913Z,49.10
2022-12-05T13:20:36.801Z,36.90
2022-12-05T13:25:43.723Z,45.40
2022-12-05T13:31:05.299Z,43.90
2022-12-05T13:36:33.157Z,37.30
2022-12-05T13:47:07.988Z,48.80
2022-12-05T13:52:21.205Z,49.50
2022-12-05T13:57:40.185Z,46.50
2022-12-05T14:02:44.342Z,52.30
2022-12-05T14:07:51.452Z,44.10
2022-12-05T14:13:24.097Z,50.10
2022-12-05T14:18:50.963Z,49.30
2022-12-05T14:23:54.577Z,37.40
2022-12-05T14:29:16.839Z,48.80
2022-12-05T14:34:29.304Z,44.10
2022-12-05T14:39:47.564Z,44.30
2022-12-05T14:44:54.806Z,55.00
2022-12-05T14:50:36.346Z,56.60
2022-12-05T14:55:40.846Z,103.10
2022-12-05T15:00:48.270Z,81.20
2022-12-05T15:05:56.537Z,50.80
2022-12-05T15:11:04.842Z,56.20
2022-12-05T15:16:17.222Z,50.10
2022-12-05T15:21:34.381Z,46.60
2022-12-05T15:26:54.489Z,50.50
2022-12-05T15:32:11.424Z,45.70
2022-12-05T15:37:18.263Z,57.60
2022-12-05T15:42:30.192Z,47.70
2022-12-05T15:47:34.054Z,59.20
2022-12-05T15:52:54.322Z,55.30
2022-12-05T15:58:26.854Z,57.60
2022-12-05T16:03:40.107Z,57.80
2022-12-05T16:08:50.215Z,41.40
2022-12-05T16:14:01.681Z,56.90
2022-12-05T16:19:15.276Z,61.90
2022-12-05T16:24:22.867Z,59.30
2022-12-05T16:29:32.605Z,48.80
2022-12-05T16:34:37.410Z,53.70
2022-12-05T16:39:46.545Z,46.10
2022-12-05T16:45:04.176Z,43.90
2022-12-05T16:50:31.318Z,62.60
2022-12-05T16:55:38.728Z,48.40
2022-12-05T17:00:43.436Z,53.00
2022-12-05T17:05:47.622Z,49.30
2022-12-05T17:10:52.024Z,44.20
2022-12-05T17:15:55.711Z,41.40
2022-12-05T17:21:01.550Z,58.30
2022-12-05T17:26:05.525Z,53.80
2022-12-05T17:31:13.913Z,47.40
2022-12-05T17:36:17.960Z,48.00
2022-12-05T17:41:25.575Z,56.00
2022-12-05T17:46:31.022Z,58.00
2022-12-05T17:51:48.079Z,45.40
2022-12-05T17:56:58.674Z,44.70
2022-12-05T18:02:02.766Z,56.50
2022-12-05T18:07:06.746Z,49.50
2022-12-05T18:12:10.112Z,54.30
2022-12-05T18:17:13.955Z,40.60
2022-12-05T18:22:20.284Z,50.60
2022-12-05T18:27:26.146Z,55.60
2022-12-05T18:32:30.008Z,47.70
2022-12-05T18:37:37.090Z,48.60
2022-12-05T18:42:40.926Z,37.40
2022-12-05T18:47:45.631Z,58.90
2022-12-05T18:52:49.397Z,56.00
2022-12-05T18:57:53.052Z,61.40
2022-12-05T19:02:56.600Z,62.60
2022-12-05T19:08:00.780Z,62.40
2022-12-05T19:13:04.085Z,67.40
2022-12-05T19:18:07.737Z,58.20
2022-12-05T19:23:12.999Z,62.30
2022-12-05T19:28:22.617Z,55.10
2022-12-05T19:33:43.079Z,56.20
2022-12-05T19:38:54.083Z,56.30
2022-12-05T19:44:00.958Z,54.00
2022-12-05T19:49:08.927Z,65.20
2022-12-05T19:54:14.928Z,70.40
2022-12-05T19:59:19.455Z,58.00
2022-12-05T20:04:23.444Z,72.00
2022-12-05T20:09:27.625Z,69.20
2022-12-05T20:14:31.753Z,64.60
2022-12-05T20:19:35.629Z,71.10
2022-12-05T20:24:39.734Z,66.60
2022-12-05T20:29:44.126Z,64.90
2022-12-05T20:34:49.690Z,71.80
2022-12-05T20:39:53.593Z,57.90
2022-12-05T20:44:59.372Z,69.50
2022-12-05T20:50:02.732Z,56.20
2022-12-05T20:55:06.906Z,66.80
2022-12-05T21:00:12.148Z,61.70
2022-12-05T21:05:15.831Z,61.70
2022-12-05T21:10:19.431Z,72.60
2022-12-05T21:15:23.692Z,63.40
2022-12-05T21:20:27.472Z,62.50
2022-12-05T21:25:33.188Z,56.40
2022-12-05T21:30:37.180Z,68.40
2022-12-05T21:35:40.940Z,65.80
2022-12-05T21:40:45.342Z,53.40
2022-12-05T21:45:56.315Z,70.80
2022-12-05T21:51:00.649Z,55.70
2022-12-05T21:56:16.003Z,59.60
2022-12-05T22:01:25.390Z,55.10
2022-12-05T22:06:34.236Z,57.90
2022-12-05T22:11:38.553Z,55.90
2022-12-05T22:16:42.383Z,55.00
2022-12-05T22:21:45.856Z,55.80
2022-12-05T22:26:49.334Z,58.00
2022-12-05T22:31:52.986Z,57.00
2022-12-05T22:36:56.634Z,64.40
2022-12-05T22:42:00.378Z,60.10
2022-12-05T22:47:04.271Z,65.50
2022-12-05T22:52:08.728Z,57.10
2022-12-05T22:57:12.851Z,59.80
2022-12-05T23:02:16.460Z,57.00
2022-12-05T23:07:20.412Z,57.50
2022-12-05T23:12:23.836Z,53.30
2022-12-05T23:17:27.271Z,63.80
2022-12-05T23:22:30.692Z,53.10
2022-12-05T23:27:34.998Z,53.90
2022-12-05T23:32:39.057Z,60.40
2022-12-05T23:37:42.861Z,63.30
2022-12-05T23:42:46.266Z,63.10
2022-12-05T23:47:50.063Z,63.70
2022-12-05T23:52:53.673Z,57.50
2022-12-05T23:57:57.771Z,68.00
